createdAt,value
2023-05-14T00:02:27.970Z,79.77
2023-05-14T00:04:55.949Z,79.43
2023-05-14T00:07:24.013Z,79.35
2023-05-14T00:09:51.896Z,79.43
2023-05-14T00:12:20.035Z,79.66
2023-05-14T00:14:47.902Z,79.75
2023-05-14T00:17:15.884Z,79.66
2023-05-14T00:19:44.055Z,80.33
2023-05-14T00:22:12.095Z,80.12
2023-05-14T00:24:40.110Z,80.20
2023-05-14T00:27:08.640Z,80.25
2023-05-14T00:29:36.650Z,80.00
2023-05-14T00:32:04.895Z,80.28
2023-05-14T00:34:32.952Z,79.80
2023-05-14T00:37:01.203Z,80.06
2023-05-14T00:39:29.126Z,80.22
2023-05-14T00:41:56.956Z,80.17
2023-05-14T00:44:25.085Z,79.84
2023-05-14T00:46:53.379Z,79.75
2023-05-14T00:49:21.825Z,80.03
2023-05-14T00:51:50.144Z,80.20
2023-05-14T00:54:18.239Z,80.07
2023-05-14T00:56:46.948Z,80.03
2023-05-14T00:59:14.994Z,80.20
2023-05-14T01:01:43.002Z,80.47
2023-05-14T01:04:11.886Z,80.64
2023-05-14T01:06:39.714Z,80.32
2023-05-14T01:09:18.999Z,80.35
2023-05-14T01:12:00.996Z,81.12
2023-05-14T01:14:47.592Z,81.58
2023-05-14T01:17:16.147Z,81.93
2023-05-14T01:19:45.479Z,81.59
2023-05-14T01:22:13.515Z,81.97
2023-05-14T01:24:41.708Z,81.83
2023-05-14T01:27:18.901Z,81.55
2023-05-14T01:29:53.521Z,81.04
2023-05-14T01:32:24.790Z,81.08
2023-05-14T01:34:53.729Z,80.89
2023-05-14T01:37:22.747Z,81.18
2023-05-14T01:39:52.022Z,81.65
2023-05-14T01:42:20.946Z,82.50
2023-05-14T01:44:48.973Z,82.61
2023-05-14T01:47:17.082Z,82.05
2023-05-14T01:49:45.157Z,81.76
2023-05-14T01:52:13.222Z,81.83
2023-05-14T01:54:41.182Z,82.32
2023-05-14T01:57:09.147Z,82.08
2023-05-14T01:59:37.121Z,81.76
2023-05-14T02:02:05.292Z,81.64
2023-05-14T02:04:33.264Z,81.78
2023-05-14T02:07:01.256Z,82.03
2023-05-14T02:09:30.743Z,82.29
2023-05-14T02:11:59.531Z,82.18
2023-05-14T02:14:27.798Z,82.52
2023-05-14T02:16:56.383Z,82.74
2023-05-14T02:19:24.545Z,82.53
2023-05-14T02:21:52.508Z,82.39
2023-05-14T02:24:21.247Z,82.54
2023-05-14T02:26:49.595Z,82.06
2023-05-14T02:29:17.562Z,82.07
2023-05-14T02:31:45.535Z,82.28
2023-05-14T02:34:13.509Z,81.94
2023-05-14T02:36:41.413Z,82.11
2023-05-14T02:39:09.328Z,82.24
2023-05-14T02:41:37.608Z,81.87
2023-05-14T02:44:05.670Z,81.30
2023-05-14T02:46:33.720Z,81.64
2023-05-14T02:49:03.366Z,81.78
2023-05-14T02:51:31.309Z,81.40
2023-05-14T02:53:59.591Z,81.33
2023-05-14T02:56:27.657Z,81.42
2023-05-14T02:58:55.741Z,81.31
2023-05-14T03:01:24.299Z,81.32
2023-05-14T03:03:52.802Z,81.85
2023-05-14T03:06:20.773Z,82.18
2023-05-14T03:08:48.643Z,82.06
2023-05-14T03:11:16.486Z,81.91
2023-05-14T03:13:44.561Z,82.29
2023-05-14T03:16:13.139Z,81.91
2023-05-14T03:18:41.266Z,81.98
2023-05-14T03:21:10.323Z,82.49
2023-05-14T03:23:38.493Z,81.61
2023-05-14T03:26:06.489Z,80.65
2023-05-14T03:28:34.528Z,79.82
2023-05-14T03:31:03.089Z,79.19
2023-05-14T03:33:31.491Z,78.29
2023-05-14T03:35:59.325Z,77.54
2023-05-14T03:38:27.293Z,77.72
2023-05-14T03:40:55.188Z,77.59
2023-05-14T03:43:23.155Z,77.38
2023-05-14T03:45:52.854Z,77.81
2023-05-14T03:48:21.376Z,78.61
2023-05-14T03:50:49.307Z,78.82
2023-05-14T03:53:17.309Z,78.98
2023-05-14T03:55:46.793Z,78.97
2023-05-14T03:58:14.781Z,79.01
2023-05-14T04:00:43.655Z,79.22
2023-05-14T04:03:12.044Z,79.84
2023-05-14T04:05:40.084Z,79.30
2023-05-14T04:08:07.953Z,78.91
2023-05-14T04:10:36.070Z,78.89
2023-05-14T04:13:03.790Z,78.94
2023-05-14T04:15:35.868Z,78.64
2023-05-14T04:18:04.175Z,77.90
2023-05-14T04:20:32.212Z,76.85
2023-05-14T04:23:00.375Z,76.59
2023-05-14T04:25:28.350Z,76.15
2023-05-14T04:27:56.093Z,74.30
2023-05-14T04:30:24.460Z,73.17
2023-05-14T04:32:52.584Z,72.02
2023-05-14T04:35:24.134Z,71.20
2023-05-14T04:37:52.917Z,70.27
2023-05-14T04:40:20.809Z,69.44
2023-05-14T04:42:48.936Z,68.56
2023-05-14T04:45:17.420Z,68.37
2023-05-14T04:47:46.349Z,68.13
2023-05-14T04:50:14.788Z,66.81
2023-05-14T04:52:42.567Z,65.94
2023-05-14T04:55:10.839Z,65.55
2023-05-14T04:57:38.616Z,65.20
2023-05-14T05:00:07.576Z,64.53
2023-05-14T05:02:36.090Z,63.70
2023-05-14T05:05:04.315Z,64.10
2023-05-14T05:07:32.428Z,64.09
2023-05-14T05:10:00.796Z,63.73
2023-05-14T05:12:30.391Z,63.35
2023-05-14T05:14:58.575Z,62.02
2023-05-14T05:17:26.541Z,61.94
2023-05-14T05:19:54.407Z,60.86
2023-05-14T05:22:22.773Z,60.68
2023-05-14T05:24:50.725Z,61.97
2023-05-14T05:27:18.625Z,62.53
2023-05-14T05:29:46.488Z,61.79
2023-05-14T05:32:14.342Z,61.67
2023-05-14T05:34:42.510Z,61.08
2023-05-14T05:37:12.869Z,59.82
2023-05-14T05:39:41.039Z,60.42
2023-05-14T05:42:09.197Z,60.07
2023-05-14T05:44:37.276Z,59.60
2023-05-14T05:47:06.088Z,59.09
2023-05-14T05:49:34.159Z,58.74
2023-05-14T05:52:02.374Z,57.86
2023-05-14T05:54:32.531Z,58.22
2023-05-14T05:57:00.990Z,57.49
2023-05-14T05:59:28.976Z,57.23
2023-05-14T06:01:57.068Z,57.14
2023-05-14T06:04:24.930Z,56.58
2023-05-14T06:06:52.729Z,56.43
2023-05-14T06:09:21.031Z,55.34
2023-05-14T06:11:48.862Z,54.41
2023-05-14T06:14:16.870Z,54.24
2023-05-14T06:16:44.735Z,53.79
2023-05-14T06:19:12.815Z,49.79
2023-05-14T06:21:40.969Z,47.79
2023-05-14T06:24:09.145Z,47.60
2023-05-14T06:26:37.007Z,47.26
2023-05-14T06:29:04.933Z,47.94
2023-05-14T06:31:32.972Z,48.26
2023-05-14T06:34:01.120Z,48.43
2023-05-14T06:36:29.089Z,48.13
2023-05-14T06:38:57.067Z,48.56
2023-05-14T06:41:25.028Z,48.35
2023-05-14T06:43:52.887Z,47.37
2023-05-14T06:46:21.060Z,45.75
2023-05-14T06:48:49.119Z,44.90
2023-05-14T06:51:17.045Z,45.47
2023-05-14T06:53:45.173Z,45.95
2023-05-14T06:56:14.905Z,45.90
2023-05-14T06:58:42.958Z,45.90
2023-05-14T07:01:10.943Z,46.18
2023-05-14T07:03:39.515Z,45.76
2023-05-14T07:06:07.409Z,45.97
2023-05-14T07:08:36.276Z,45.44
2023-05-14T07:11:04.433Z,45.04
2023-05-14T07:13:32.216Z,44.86
2023-05-14T07:16:00.088Z,44.94
2023-05-14T07:18:28.309Z,45.28
2023-05-14T07:20:56.214Z,44.64
2023-05-14T07:23:24.096Z,44.51
2023-05-14T07:25:52.042Z,43.30
2023-05-14T07:28:19.895Z,42.74
2023-05-14T07:30:47.747Z,42.71
2023-05-14T07:33:15.515Z,43.11
2023-05-14T07:35:43.430Z,43.59
2023-05-14T07:38:11.472Z,43.54
2023-05-14T07:40:39.444Z,42.80
2023-05-14T07:43:07.456Z,42.04
2023-05-14T07:45:36.533Z,40.47
2023-05-14T07:48:04.587Z,39.31
2023-05-14T07:50:32.980Z,40.23
2023-05-14T07:53:01.018Z,40.87
2023-05-14T07:55:28.830Z,41.02
2023-05-14T07:57:56.854Z,41.45
2023-05-14T08:00:25.182Z,42.23
2023-05-14T08:02:53.574Z,42.18
2023-05-14T08:05:21.780Z,42.03
2023-05-14T08:07:49.816Z,41.65
2023-05-14T08:10:17.619Z,40.87
2023-05-14T08:12:45.386Z,40.34
2023-05-14T08:15:13.649Z,39.84
2023-05-14T08:17:41.655Z,39.35
2023-05-14T08:20:12.078Z,38.68
2023-05-14T08:22:40.137Z,38.60
2023-05-14T08:25:08.435Z,38.62
2023-05-14T08:27:37.066Z,38.92
2023-05-14T08:30:06.597Z,39.24
2023-05-14T08:32:34.480Z,38.80
2023-05-14T08:35:02.654Z,39.07
2023-05-14T08:37:30.697Z,39.26
2023-05-14T08:39:58.581Z,39.30
2023-05-14T08:42:27.157Z,39.48
2023-05-14T08:45:05.054Z,39.48
2023-05-14T08:47:33.778Z,39.28
2023-05-14T08:50:02.160Z,39.10
2023-05-14T08:52:30.887Z,39.39
2023-05-14T08:55:05.712Z,39.85
2023-05-14T08:57:34.471Z,40.02
2023-05-14T09:00:08.670Z,39.26
2023-05-14T09:02:36.865Z,38.69
2023-05-14T09:05:05.146Z,38.68
2023-05-14T09:07:33.857Z,39.17
2023-05-14T09:10:02.917Z,39.49
2023-05-14T09:12:31.368Z,39.73
2023-05-14T09:14:59.309Z,39.31
2023-05-14T09:17:28.110Z,39.04
2023-05-14T09:19:56.155Z,39.16
2023-05-14T09:22:24.228Z,38.52
2023-05-14T09:25:04.278Z,38.44
2023-05-14T09:27:32.862Z,38.12
2023-05-14T09:30:07.381Z,37.39
2023-05-14T09:32:36.202Z,37.39
2023-05-14T09:35:24.362Z,37.69
2023-05-14T09:37:53.413Z,38.02
2023-05-14T09:40:23.290Z,37.13
2023-05-14T09:42:52.003Z,37.04
2023-05-14T09:45:19.872Z,36.85
2023-05-14T09:47:48.201Z,36.57
2023-05-14T09:50:16.196Z,36.72
2023-05-14T09:52:44.181Z,37.44
2023-05-14T09:55:12.152Z,38.45
2023-05-14T09:57:40.136Z,37.97
2023-05-14T10:00:09.280Z,37.80
2023-05-14T10:02:38.702Z,37.49
2023-05-14T10:05:07.780Z,37.79
2023-05-14T10:07:38.855Z,38.35
2023-05-14T10:10:08.166Z,38.26
2023-05-14T10:12:38.896Z,37.47
2023-05-14T10:15:14.218Z,37.07
2023-05-14T10:17:45.838Z,36.70
2023-05-14T10:20:15.691Z,36.97
2023-05-14T10:22:43.437Z,37.12
2023-05-14T10:25:11.533Z,37.21
2023-05-14T10:27:40.510Z,37.26
2023-05-14T10:30:12.907Z,37.33
2023-05-14T10:32:42.178Z,37.69
2023-05-14T10:35:22.881Z,37.91
2023-05-14T10:37:51.633Z,38.29
2023-05-14T10:40:19.670Z,38.72
2023-05-14T10:42:48.708Z,38.76
2023-05-14T10:45:16.906Z,39.27
2023-05-14T10:47:46.543Z,39.91
2023-05-14T10:50:15.377Z,40.05
2023-05-14T10:52:44.037Z,39.58
2023-05-14T10:55:16.159Z,39.17
2023-05-14T10:57:45.408Z,39.47
2023-05-14T11:00:14.795Z,39.52
2023-05-14T11:02:44.634Z,39.54
2023-05-14T11:05:17.530Z,39.88
2023-05-14T11:07:47.337Z,39.56
2023-05-14T11:10:19.230Z,39.30
2023-05-14T11:12:48.299Z,39.63
2023-05-14T11:15:17.191Z,39.85
2023-05-14T11:17:46.008Z,40.33
2023-05-14T11:20:15.081Z,40.34
2023-05-14T11:22:43.376Z,40.33
2023-05-14T11:25:14.837Z,40.44
2023-05-14T11:27:43.985Z,40.26
2023-05-14T11:30:16.492Z,40.48
2023-05-14T11:32:48.590Z,40.88
2023-05-14T11:35:17.517Z,40.98
2023-05-14T11:37:52.602Z,40.89
2023-05-14T11:40:20.774Z,40.76
2023-05-14T11:42:51.244Z,40.63
2023-05-14T11:45:30.076Z,40.77
2023-05-14T11:47:58.285Z,40.94
2023-05-14T11:50:26.643Z,40.75
2023-05-14T11:52:58.413Z,39.48
2023-05-14T11:55:26.327Z,39.40
2023-05-14T11:57:54.371Z,39.19
2023-05-14T12:00:24.161Z,39.14
2023-05-14T12:02:52.560Z,39.24
2023-05-14T12:05:20.564Z,39.51
2023-05-14T12:07:48.437Z,39.29
2023-05-14T12:10:16.823Z,38.76
2023-05-14T12:12:48.367Z,38.60
2023-05-14T12:15:20.758Z,39.41
2023-05-14T12:17:52.070Z,40.33
2023-05-14T12:20:20.256Z,40.74
2023-05-14T12:22:48.233Z,41.48
2023-05-14T12:25:16.034Z,41.90
2023-05-14T12:27:45.186Z,41.94
2023-05-14T12:30:21.328Z,42.41
2023-05-14T12:32:52.738Z,42.92
2023-05-14T12:35:21.602Z,43.06
2023-05-14T12:37:49.871Z,43.42
2023-05-14T12:40:17.947Z,42.83
2023-05-14T12:42:45.777Z,42.44
2023-05-14T12:45:13.773Z,42.49
2023-05-14T12:47:41.765Z,43.39
2023-05-14T12:50:09.876Z,43.32
2023-05-14T12:52:39.705Z,43.39
2023-05-14T12:55:09.507Z,43.69
2023-05-14T12:57:39.310Z,43.74
2023-05-14T13:00:08.645Z,44.84
2023-05-14T13:02:42.703Z,46.33
2023-05-14T13:05:12.378Z,47.47
2023-05-14T13:07:40.792Z,49.07
2023-05-14T13:10:09.030Z,50.37
2023-05-14T13:12:37.083Z,51.94
2023-05-14T13:15:05.526Z,53.71
2023-05-14T13:17:33.573Z,55.17
2023-05-14T13:20:01.700Z,57.21
2023-05-14T13:22:29.783Z,58.61
2023-05-14T13:24:57.869Z,59.92
2023-05-14T13:27:26.226Z,61.27
2023-05-14T13:29:54.142Z,62.27
2023-05-14T13:32:22.377Z,63.33
2023-05-14T13:34:50.532Z,63.41
2023-05-14T13:37:18.403Z,64.36
2023-05-14T13:39:46.164Z,65.29
2023-05-14T13:42:14.029Z,66.12
2023-05-14T13:44:42.235Z,66.05
2023-05-14T13:47:10.591Z,66.15
2023-05-14T13:49:38.471Z,66.55
2023-05-14T13:52:06.776Z,66.84
2023-05-14T13:54:34.646Z,65.32
2023-05-14T13:57:02.489Z,64.06
2023-05-14T13:59:30.521Z,63.39
2023-05-14T14:01:58.403Z,62.67
2023-05-14T14:04:29.247Z,62.11
2023-05-14T14:06:57.302Z,61.00
2023-05-14T14:09:25.467Z,59.61
2023-05-14T14:11:53.385Z,57.81
2023-05-14T14:14:21.458Z,57.59
2023-05-14T14:16:49.292Z,56.27
2023-05-14T14:19:18.526Z,55.35
2023-05-14T14:21:46.767Z,55.41
2023-05-14T14:24:15.151Z,56.28
2023-05-14T14:26:42.899Z,57.20
2023-05-14T14:29:10.649Z,57.33
2023-05-14T14:31:38.642Z,57.51
2023-05-14T14:34:06.634Z,56.52
2023-05-14T14:36:37.226Z,56.24
2023-05-14T14:39:05.120Z,56.38
2023-05-14T14:41:32.954Z,56.14
2023-05-14T14:44:02.893Z,55.37
2023-05-14T14:46:30.958Z,55.58
2023-05-14T14:48:58.969Z,55.72
2023-05-14T14:51:27.380Z,55.21
2023-05-14T14:53:55.302Z,54.91
2023-05-14T14:56:23.241Z,54.69
2023-05-14T14:58:51.091Z,54.29
2023-05-14T15:01:19.003Z,54.44
2023-05-14T15:03:48.428Z,54.82
2023-05-14T15:06:16.521Z,55.09
2023-05-14T15:08:44.285Z,55.24
2023-05-14T15:11:12.116Z,55.05
2023-05-14T15:13:41.836Z,55.17
2023-05-14T15:16:09.876Z,54.72
2023-05-14T15:18:37.877Z,54.81
2023-05-14T15:21:05.983Z,54.81
2023-05-14T15:23:33.816Z,54.88
2023-05-14T15:26:02.110Z,54.69
2023-05-14T15:28:29.981Z,54.44
2023-05-14T15:30:58.051Z,54.40
2023-05-14T15:33:26.128Z,53.98
2023-05-14T15:35:53.983Z,53.54
2023-05-14T15:38:21.980Z,53.41
2023-05-14T15:40:50.946Z,53.28
2023-05-14T15:43:18.853Z,53.30
2023-05-14T15:45:46.964Z,53.39
2023-05-14T15:48:14.894Z,53.35
2023-05-14T15:50:43.317Z,53.19
2023-05-14T15:53:11.297Z,53.29
2023-05-14T15:55:39.116Z,53.17
2023-05-14T15:58:07.136Z,52.91
2023-05-14T16:00:35.106Z,52.76
2023-05-14T16:03:03.336Z,52.37
2023-05-14T16:05:31.347Z,52.31
2023-05-14T16:07:59.315Z,52.07
2023-05-14T16:10:27.289Z,52.03
2023-05-14T16:12:55.615Z,52.07
2023-05-14T16:15:23.510Z,52.10
2023-05-14T16:17:51.436Z,52.12
2023-05-14T16:20:19.491Z,52.13
2023-05-14T16:22:47.355Z,52.23
2023-05-14T16:25:15.412Z,52.00
2023-05-14T16:27:43.366Z,52.09
2023-05-14T16:30:11.503Z,52.10
2023-05-14T16:32:41.971Z,52.10
2023-05-14T16:35:10.141Z,52.06
2023-05-14T16:37:37.865Z,51.86
2023-05-14T16:40:06.277Z,52.05
2023-05-14T16:42:34.173Z,52.12
2023-05-14T16:45:02.134Z,52.25
2023-05-14T16:47:29.946Z,52.27
2023-05-14T16:49:58.146Z,52.15
2023-05-14T16:52:26.235Z,52.04
2023-05-14T16:54:54.288Z,51.96
2023-05-14T16:57:22.248Z,52.00
2023-05-14T16:59:50.219Z,51.99
2023-05-14T17:02:18.089Z,52.13
2023-05-14T17:04:46.362Z,52.30
2023-05-14T17:07:14.640Z,52.60
2023-05-14T17:09:42.593Z,52.72
2023-05-14T17:12:11.274Z,52.96
2023-05-14T17:14:39.255Z,53.21
2023-05-14T17:17:07.428Z,53.40
2023-05-14T17:19:35.341Z,53.49
2023-05-14T17:22:06.073Z,53.65
2023-05-14T17:24:35.531Z,53.74
2023-05-14T17:27:03.401Z,53.82
2023-05-14T17:29:31.471Z,53.56
2023-05-14T17:31:59.454Z,53.31
2023-05-14T17:34:27.610Z,53.28
2023-05-14T17:36:55.600Z,53.24
2023-05-14T17:39:23.451Z,53.24
2023-05-14T17:41:51.512Z,53.12
2023-05-14T17:44:19.233Z,53.03
2023-05-14T17:46:47.914Z,52.78
2023-05-14T17:49:15.913Z,52.67
2023-05-14T17:51:43.999Z,52.68
2023-05-14T17:54:11.736Z,52.43
2023-05-14T17:56:39.803Z,52.35
2023-05-14T17:59:07.790Z,52.26
2023-05-14T18:01:35.781Z,52.25
2023-05-14T18:04:03.620Z,52.25
2023-05-14T18:06:31.519Z,52.09
2023-05-14T18:08:59.388Z,51.83
2023-05-14T18:11:32.889Z,51.43
2023-05-14T18:14:00.903Z,51.25
2023-05-14T18:16:28.859Z,51.00
2023-05-14T18:18:56.816Z,50.78
2023-05-14T18:21:24.796Z,50.58
2023-05-14T18:23:52.531Z,50.58
2023-05-14T18:26:22.237Z,50.82
2023-05-14T18:28:50.147Z,50.89
2023-05-14T18:31:18.548Z,50.99
2023-05-14T18:33:46.497Z,51.02
2023-05-14T18:36:14.721Z,50.84
2023-05-14T18:38:42.582Z,50.84
2023-05-14T18:41:10.657Z,50.69
2023-05-14T18:43:38.524Z,50.67
2023-05-14T18:46:06.433Z,50.68
2023-05-14T18:48:35.185Z,50.69
2023-05-14T18:51:03.159Z,50.76
2023-05-14T18:53:31.515Z,50.65
2023-05-14T18:56:02.465Z,50.71
2023-05-14T18:58:30.538Z,50.64
2023-05-14T19:00:59.210Z,50.65
2023-05-14T19:03:27.514Z,50.69
2023-05-14T19:05:55.963Z,50.81
2023-05-14T19:08:24.050Z,50.87
2023-05-14T19:10:53.145Z,50.92
2023-05-14T19:13:21.322Z,51.02
2023-05-14T19:15:49.272Z,51.01
2023-05-14T19:18:17.858Z,51.10
2023-05-14T19:20:46.741Z,51.13
2023-05-14T19:23:15.242Z,51.13
2023-05-14T19:25:43.234Z,51.24
2023-05-14T19:28:11.154Z,51.25
2023-05-14T19:30:39.235Z,51.22
2023-05-14T19:33:07.256Z,51.33
2023-05-14T19:35:35.353Z,51.31
2023-05-14T19:38:03.442Z,51.47
2023-05-14T19:40:31.294Z,51.40
2023-05-14T19:42:59.108Z,51.43
2023-05-14T19:45:27.061Z,51.54
2023-05-14T19:47:55.522Z,51.65
2023-05-14T19:50:23.387Z,51.64
2023-05-14T19:52:51.356Z,51.56
2023-05-14T19:55:19.322Z,51.68
2023-05-14T19:57:47.198Z,51.78
2023-05-14T20:00:15.207Z,51.87
2023-05-14T20:02:43.438Z,51.97
2023-05-14T20:05:11.605Z,52.13
2023-05-14T20:07:40.598Z,52.12
2023-05-14T20:10:09.070Z,52.18
2023-05-14T20:12:36.842Z,52.25
2023-05-14T20:15:05.332Z,52.23
2023-05-14T20:17:33.509Z,52.13
2023-05-14T20:20:01.680Z,52.18
2023-05-14T20:22:29.631Z,52.07
2023-05-14T20:24:57.706Z,51.89
2023-05-14T20:27:25.810Z,51.66
2023-05-14T20:29:54.392Z,51.50
2023-05-14T20:32:25.155Z,51.46
2023-05-14T20:34:53.544Z,51.55
2023-05-14T20:37:21.675Z,51.72
2023-05-14T20:39:49.876Z,52.11
2023-05-14T20:42:17.782Z,52.26
2023-05-14T20:44:48.517Z,52.46
2023-05-14T20:47:20.587Z,52.60
2023-05-14T20:49:48.955Z,52.57
2023-05-14T20:52:17.568Z,52.64
2023-05-14T20:54:46.136Z,52.63
2023-05-14T20:57:15.965Z,52.77
2023-05-14T20:59:43.896Z,52.78
2023-05-14T21:02:12.194Z,52.70
2023-05-14T21:04:40.504Z,52.69
2023-05-14T21:07:08.628Z,52.69
2023-05-14T21:09:36.490Z,52.72
2023-05-14T21:12:04.631Z,52.89
2023-05-14T21:14:32.656Z,52.84
2023-05-14T21:17:00.496Z,52.83
2023-05-14T21:19:28.228Z,52.83
2023-05-14T21:21:56.228Z,53.02
2023-05-14T21:24:24.094Z,53.06
2023-05-14T21:26:53.498Z,53.14
2023-05-14T21:29:21.564Z,53.39
2023-05-14T21:31:50.403Z,53.41
2023-05-14T21:34:18.316Z,53.68
2023-05-14T21:36:46.732Z,53.57
2023-05-14T21:39:14.778Z,53.61
2023-05-14T21:41:42.560Z,53.68
2023-05-14T21:44:10.705Z,53.62
2023-05-14T21:46:38.693Z,53.64
2023-05-14T21:49:06.564Z,53.65
2023-05-14T21:51:34.525Z,53.70
2023-05-14T21:54:02.273Z,53.94
2023-05-14T21:56:30.256Z,53.99
2023-05-14T21:58:58.321Z,53.89
2023-05-14T22:01:26.399Z,54.02
2023-05-14T22:03:55.749Z,54.14
2023-05-14T22:06:25.807Z,54.30
2023-05-14T22:08:53.768Z,54.39
2023-05-14T22:11:21.944Z,54.51
2023-05-14T22:13:49.809Z,54.75
2023-05-14T22:16:17.702Z,54.83
2023-05-14T22:18:45.713Z,54.74
2023-05-14T22:21:13.748Z,54.90
2023-05-14T22:23:41.817Z,54.95
2023-05-14T22:26:09.975Z,54.90
2023-05-14T22:28:42.875Z,54.73
2023-05-14T22:31:11.298Z,54.77
2023-05-14T22:33:39.406Z,54.80
2023-05-14T22:36:07.563Z,54.83
2023-05-14T22:38:35.572Z,54.82
2023-05-14T22:41:03.400Z,54.81
2023-05-14T22:43:31.265Z,54.82
2023-05-14T22:45:59.347Z,54.84
2023-05-14T22:48:27.300Z,54.92
2023-05-14T22:50:55.152Z,54.96
2023-05-14T22:53:24.388Z,55.07
2023-05-14T22:55:53.057Z,54.99
2023-05-14T22:58:21.028Z,54.81
2023-05-14T23:00:49.098Z,54.72
2023-05-14T23:03:17.165Z,54.79
2023-05-14T23:05:45.335Z,54.74
2023-05-14T23:08:13.403Z,54.75
2023-05-14T23:10:41.210Z,54.65
2023-05-14T23:13:09.018Z,54.67
2023-05-14T23:15:37.314Z,54.74
2023-05-14T23:18:05.389Z,54.65
2023-05-14T23:20:33.344Z,54.72
2023-05-14T23:23:01.138Z,54.75
2023-05-14T23:25:29.059Z,54.87
2023-05-14T23:27:57.075Z,54.86
2023-05-14T23:30:24.932Z,54.93
2023-05-14T23:32:52.843Z,54.89
2023-05-14T23:35:20.854Z,54.98
2023-05-14T23:37:50.994Z,54.96
2023-05-14T23:40:18.843Z,54.88
2023-05-14T23:42:46.610Z,55.43
2023-05-14T23:45:14.580Z,55.84
2023-05-14T23:47:42.787Z,55.99
2023-05-14T23:50:10.915Z,56.07
2023-05-14T23:52:38.795Z,56.23
2023-05-14T23:55:07.163Z,56.47
2023-05-14T23:57:35.642Z,56.74
